Stahlstown, Pennsylvania
Current Conditions -  °F | °C
As of 6:50 AM on Saturday 25 Oct 2014 (Local Time) from KLBE Reporting Station
Broken Clouds Broken Clouds  
Wind Chill: 44°   Ceiling: 4000
Heat Index: 48°   Visibility: 10mi
Dew Point: 43°   Wind: 9mph
Humidity: 82%   Direction: 210°SSW
Pressure: 29.97"   Gusts: NA
Location:  40.15°N, 79.33°W
Report Text: KLBE 251050Z 21008KT 10SM BKN040 09/06 A2997
Loading
Personal Weather Stations






























Interactive Weather Map
Tropical Storm Tracking
New forecast layout! Learn more

10-Day Weather Forecast

Advertisements
Track Severe Weather on mobile